Time;durP1;ratioP1;P1;durP2;ratioP2;P2;SDS_P1;SDS_P2;PMS_P1;PMS_P2;Temp;Humidity;BMP_temperature;BMP_pressure;BME280_temperature;BME280_humidity;BME280_pressure;Samples;Min_cycle;Max_cycle;Signal;HPM_P1;HPM_P2
2022/09/18 00:01:35;;;;;;;0.93;0.90;;;20.90;64.20;;;;;;5071545;28;20443;-73
2022/09/18 00:04:05;;;;;;;0.97;0.90;;;20.90;64.00;;;;;;5071074;28;20419;-72
2022/09/18 00:06:37;;;;;;;0.57;0.57;;;20.90;64.20;;;;;;5055888;28;20991;-72
2022/09/18 00:09:07;;;;;;;1.50;0.97;;;20.90;64.20;;;;;;5051427;28;20447;-72
2022/09/18 00:11:42;;;;;;;1.60;0.93;;;20.90;64.10;;;;;;5059996;28;20480;-73
2022/09/18 00:14:13;;;;;;;1.73;0.90;;;20.90;64.10;;;;;;5074071;28;20988;-73
2022/09/18 00:16:41;;;;;;;0.70;0.70;;;20.90;64.20;;;;;;5072989;28;20453;-73
2022/09/18 00:19:10;;;;;;;1.70;0.87;;;20.90;64.20;;;;;;5054965;28;20419;-73
2022/09/18 00:21:41;;;;;;;0.70;0.70;;;20.90;64.20;;;;;;5054922;28;20458;-73
2022/09/18 00:24:09;;;;;;;0.77;0.70;;;20.90;64.20;;;;;;5061069;28;20485;-73
2022/09/18 00:26:39;;;;;;;1.03;0.70;;;20.90;64.20;;;;;;5075012;28;20497;-73
2022/09/18 00:29:07;;;;;;;0.83;0.80;;;20.90;64.30;;;;;;5074476;28;20549;-73
2022/09/18 00:31:36;;;;;;;2.73;0.90;;;20.90;64.30;;;;;;5075154;28;20541;-73
2022/09/18 00:34:11;;;;;;;1.33;0.70;;;20.90;64.20;;;;;;5074663;28;20458;-73
2022/09/18 00:36:40;;;;;;;0.80;0.63;;;20.90;64.30;;;;;;5074779;28;20441;-73
2022/09/18 00:39:09;;;;;;;0.60;0.60;;;20.90;64.30;;;;;;5074891;28;20420;-73
2022/09/18 00:41:41;;;;;;;0.70;0.70;;;20.90;64.30;;;;;;5072639;28;20933;-73
2022/09/18 00:44:36;;;;;;;1.93;0.80;;;20.90;64.20;;;;;;5054155;28;20427;-73
2022/09/18 00:47:16;;;;;;;0.97;0.87;;;20.90;64.30;;;;;;5054500;28;20984;-73
2022/09/18 00:49:48;;;;;;;1.07;1.00;;;20.90;64.20;;;;;;5054263;28;20430;-73
2022/09/18 00:52:18;;;;;;;1.10;0.87;;;20.90;64.30;;;;;;5054973;28;20527;-73
2022/09/18 00:54:50;;;;;;;0.60;0.60;;;20.90;64.30;;;;;;5054409;28;20438;-73
2022/09/18 00:57:24;;;;;;;1.00;0.93;;;20.90;64.30;;;;;;5073233;28;20559;-73
2022/09/18 00:59:54;;;;;;;1.30;0.97;;;20.90;64.20;;;;;;5073798;28;20480;-73
2022/09/18 01:02:22;;;;;;;1.60;0.80;;;20.90;64.10;;;;;;5056327;28;20463;-73
2022/09/18 01:04:51;;;;;;;2.13;1.00;;;20.90;64.20;;;;;;5048157;28;20459;-73
2022/09/18 01:07:30;;;;;;;0.70;0.70;;;20.80;64.10;;;;;;5053892;28;20468;-73
2022/09/18 01:10:06;;;;;;;1.17;0.90;;;20.90;64.20;;;;;;5064186;28;20454;-73
2022/09/18 01:12:43;;;;;;;1.53;1.10;;;20.90;64.20;;;;;;5072449;28;20481;-73
2022/09/18 01:15:18;;;;;;;1.13;0.80;;;20.90;64.20;;;;;;5053383;28;20877;-73
2022/09/18 01:17:54;;;;;;;0.70;0.70;;;20.90;64.30;;;;;;5057544;28;20446;-73
2022/09/18 01:20:54;;;;;;;0.90;0.73;;;20.90;64.30;;;;;;5074006;28;20509;-73
2022/09/18 01:24:09;;;;;;;1.33;0.80;;;20.90;64.30;;;;;;5053316;28;20450;-73
2022/09/18 01:26:53;;;;;;;1.27;0.90;;;20.90;64.30;;;;;;5038604;28;20467;-73
2022/09/18 01:29:34;;;;;;;0.80;0.70;;;20.90;64.30;;;;;;5062982;28;20490;-73
2022/09/18 01:32:08;;;;;;;1.53;0.83;;;20.90;64.30;;;;;;5074034;28;20466;-73
2022/09/18 01:34:44;;;;;;;0.67;0.50;;;20.90;64.10;;;;;;5071848;28;20529;-73
2022/09/18 01:37:18;;;;;;;2.07;1.00;;;20.90;64.30;;;;;;5065208;28;20461;-73
2022/09/18 01:39:53;;;;;;;1.00;0.50;;;20.90;64.30;;;;;;5055841;28;20452;-73
2022/09/18 01:42:25;;;;;;;0.70;0.70;;;20.90;64.30;;;;;;5052379;28;20466;-73
2022/09/18 01:44:58;;;;;;;2.73;0.80;;;20.90;64.30;;;;;;5042612;28;20450;-73
2022/09/18 01:47:31;;;;;;;1.13;0.60;;;20.90;64.30;;;;;;5053455;28;20474;-73
2022/09/18 01:50:01;;;;;;;1.57;1.00;;;20.90;64.30;;;;;;5055283;28;20459;-73
2022/09/18 01:52:36;;;;;;;1.63;0.80;;;20.90;64.30;;;;;;5072074;28;20545;-73
2022/09/18 01:55:11;;;;;;;0.80;0.70;;;20.90;64.30;;;;;;5054166;28;20896;-73
2022/09/18 01:57:44;;;;;;;0.50;0.50;;;20.90;64.30;;;;;;5051270;28;20484;-73
2022/09/18 02:00:14;;;;;;;1.20;1.10;;;20.90;64.30;;;;;;5054720;28;20495;-73
2022/09/18 02:02:46;;;;;;;1.30;0.60;;;20.90;64.20;;;;;;5073115;28;20446;-73
2022/09/18 02:05:18;;;;;;;1.17;0.70;;;20.90;64.30;;;;;;5054956;28;20459;-72
2022/09/18 02:07:53;;;;;;;1.43;0.70;;;20.90;64.30;;;;;;5054793;28;20532;-73
2022/09/18 02:10:24;;;;;;;2.10;0.90;;;20.90;64.30;;;;;;5054887;28;21317;-73
2022/09/18 02:12:56;;;;;;;1.03;0.70;;;20.90;64.30;;;;;;5037912;28;20471;-73
2022/09/18 02:15:31;;;;;;;1.80;0.77;;;20.90;64.20;;;;;;5034936;28;20475;-73
2022/09/18 02:18:11;;;;;;;0.90;0.70;;;20.90;64.30;;;;;;5049555;28;20450;-73
2022/09/18 02:20:43;;;;;;;1.27;0.70;;;20.90;64.30;;;;;;5072883;28;20760;-73
2022/09/18 02:23:12;;;;;;;0.60;0.60;;;20.90;64.30;;;;;;5072536;28;20791;-73
2022/09/18 02:25:44;;;;;;;0.90;0.70;;;20.90;64.30;;;;;;5069403;28;21141;-73
2022/09/18 02:28:15;;;;;;;0.97;0.77;;;20.90;64.30;;;;;;5034484;28;20475;-73
2022/09/18 02:30:45;;;;;;;0.60;0.60;;;20.90;64.20;;;;;;5061092;28;20461;-73
2022/09/18 02:33:28;;;;;;;0.80;0.80;;;20.90;64.30;;;;;;5054897;28;20918;-73
2022/09/18 02:36:24;;;;;;;1.70;0.73;;;20.90;64.30;;;;;;5053080;28;20442;-73
2022/09/18 02:39:04;;;;;;;0.90;0.80;;;20.90;64.30;;;;;;5055337;28;20451;-73
2022/09/18 02:41:41;;;;;;;0.60;0.60;;;20.90;64.20;;;;;;5054905;28;21350;-73
2022/09/18 02:44:19;;;;;;;1.00;0.70;;;20.90;64.20;;;;;;5054323;28;20445;-73
2022/09/18 02:46:57;;;;;;;1.17;0.70;;;20.90;64.20;;;;;;5052502;28;20493;-72
2022/09/18 02:49:36;;;;;;;0.60;0.60;;;20.90;64.30;;;;;;5058870;28;20533;-72
2022/09/18 02:52:11;;;;;;;0.50;0.50;;;20.90;64.30;;;;;;5071454;28;20452;-72
2022/09/18 02:54:47;;;;;;;2.00;0.60;;;20.90;64.30;;;;;;5061063;28;20931;-72
2022/09/18 02:57:20;;;;;;;2.93;0.80;;;20.80;64.30;;;;;;5071868;28;20420;-73
2022/09/18 02:59:54;;;;;;;1.03;0.63;;;20.90;64.30;;;;;;5071273;28;20779;-73
2022/09/18 03:02:25;;;;;;;1.43;0.70;;;20.90;64.30;;;;;;5072489;28;20424;-72
2022/09/18 03:04:53;;;;;;;0.63;0.60;;;20.90;64.30;;;;;;5061727;28;20527;-72
2022/09/18 03:07:27;;;;;;;0.60;0.60;;;20.90;64.30;;;;;;5054179;28;20459;-72
2022/09/18 03:09:56;;;;;;;0.87;0.70;;;20.90;64.30;;;;;;5054758;28;20447;-73
2022/09/18 03:12:24;;;;;;;2.20;0.73;;;20.80;64.30;;;;;;5072295;28;20484;-73
2022/09/18 03:14:52;;;;;;;0.97;0.70;;;20.90;64.30;;;;;;5053483;28;20507;-72
2022/09/18 03:17:20;;;;;;;1.23;0.60;;;20.90;64.30;;;;;;5054862;28;20469;-72
2022/09/18 03:19:50;;;;;;;1.20;0.70;;;20.80;64.30;;;;;;5050293;28;20444;-72
2022/09/18 03:22:18;;;;;;;1.90;1.00;;;20.90;64.30;;;;;;5034070;28;20507;-72
2022/09/18 03:24:48;;;;;;;0.57;0.50;;;20.90;64.30;;;;;;5034537;28;20462;-72
2022/09/18 03:27:17;;;;;;;0.67;0.63;;;20.90;64.30;;;;;;5036606;28;20499;-73
2022/09/18 03:29:46;;;;;;;1.27;0.70;;;20.90;64.30;;;;;;5066838;28;20472;-72
2022/09/18 03:32:15;;;;;;;1.10;0.60;;;20.90;64.30;;;;;;5054376;28;20546;-73
2022/09/18 03:34:51;;;;;;;0.60;0.60;;;20.90;64.30;;;;;;5048026;28;20463;-73
2022/09/18 03:37:19;;;;;;;0.90;0.90;;;20.90;64.30;;;;;;5052328;28;20460;-73
2022/09/18 03:39:48;;;;;;;0.63;0.53;;;20.90;64.30;;;;;;5033710;28;20916;-73
2022/09/18 03:42:16;;;;;;;0.93;0.80;;;20.90;64.30;;;;;;5039012;28;20465;-73
2022/09/18 03:44:44;;;;;;;1.33;0.70;;;20.90;64.30;;;;;;5047399;28;20452;-73
2022/09/18 03:47:20;;;;;;;1.17;0.90;;;20.90;64.30;;;;;;5037951;28;20451;-73
2022/09/18 03:49:49;;;;;;;1.23;0.93;;;20.90;64.30;;;;;;5037163;28;20471;-73
2022/09/18 03:52:19;;;;;;;0.60;0.60;;;20.90;64.30;;;;;;5046403;28;20453;-73
2022/09/18 03:54:57;;;;;;;0.97;0.73;;;20.90;64.30;;;;;;5074910;28;20450;-72
2022/09/18 03:58:00;;;;;;;0.50;0.50;;;20.90;64.30;;;;;;5056537;28;20453;-73
2022/09/18 04:00:44;;;;;;;2.63;0.80;;;20.90;64.30;;;;;;5057379;28;20811;-73
2022/09/18 04:03:21;;;;;;;1.53;1.00;;;20.80;64.30;;;;;;5057426;28;20492;-72
2022/09/18 04:06:09;;;;;;;0.63;0.60;;;20.80;64.10;;;;;;5067266;28;20521;-73
2022/09/18 04:08:56;;;;;;;0.83;0.83;;;20.80;64.30;;;;;;5075107;28;20462;-73
2022/09/18 04:11:33;;;;;;;1.50;1.00;;;20.80;64.30;;;;;;5057000;28;20498;-73
2022/09/18 04:14:07;;;;;;;1.50;0.60;;;20.80;64.30;;;;;;5049982;28;20546;-73
2022/09/18 04:16:35;;;;;;;1.50;0.87;;;20.80;64.30;;;;;;5057400;28;20486;-72
2022/09/18 04:19:03;;;;;;;0.83;0.67;;;20.80;64.30;;;;;;5074331;28;20442;-72
2022/09/18 04:21:33;;;;;;;0.80;0.80;;;20.80;64.30;;;;;;5040958;28;20511;-73
2022/09/18 04:24:01;;;;;;;0.80;0.80;;;20.80;64.30;;;;;;5057146;28;20454;-72
2022/09/18 04:26:30;;;;;;;0.93;0.93;;;20.80;64.30;;;;;;5070682;28;20466;-72
2022/09/18 04:29:00;;;;;;;0.80;0.80;;;20.80;64.20;;;;;;5044827;28;20471;-72
2022/09/18 04:31:29;;;;;;;1.90;1.10;;;20.80;64.30;;;;;;5047323;28;20777;-73
2022/09/18 04:34:01;;;;;;;0.97;0.80;;;20.80;64.30;;;;;;5072971;28;20467;-72
2022/09/18 04:36:29;;;;;;;0.83;0.60;;;20.80;64.30;;;;;;5074065;28;20444;-72
2022/09/18 04:38:59;;;;;;;0.60;0.60;;;20.80;64.20;;;;;;5074580;28;20438;-73
2022/09/18 04:41:27;;;;;;;1.53;0.80;;;20.80;64.20;;;;;;5072664;28;20450;-72
2022/09/18 04:43:56;;;;;;;1.37;0.80;;;20.80;64.20;;;;;;5073551;28;20450;-73
2022/09/18 04:46:24;;;;;;;1.17;0.90;;;20.80;64.30;;;;;;5055197;28;20487;-72
2022/09/18 04:48:53;;;;;;;1.77;0.80;;;20.80;64.20;;;;;;5036180;28;20486;-73
2022/09/18 04:51:24;;;;;;;1.43;0.80;;;20.80;64.30;;;;;;5047962;28;20455;-72
2022/09/18 04:53:53;;;;;;;0.80;0.70;;;20.80;64.30;;;;;;5073506;28;20937;-73
2022/09/18 04:56:24;;;;;;;1.80;0.70;;;20.80;64.30;;;;;;5055168;28;20945;-72
2022/09/18 04:58:54;;;;;;;1.17;0.60;;;20.80;64.30;;;;;;5039642;28;20543;-72
2022/09/18 05:01:22;;;;;;;0.90;0.60;;;20.80;64.30;;;;;;5067543;28;20460;-72
2022/09/18 05:03:50;;;;;;;2.03;0.80;;;20.80;64.30;;;;;;5071305;28;20797;-73
2022/09/18 05:06:27;;;;;;;0.50;0.50;;;20.80;64.30;;;;;;5056639;28;20444;-73
2022/09/18 05:08:55;;;;;;;1.53;0.77;;;20.80;64.30;;;;;;5059592;28;20806;-72
2022/09/18 05:11:26;;;;;;;0.60;0.60;;;20.80;64.30;;;;;;5058727;28;20491;-72
2022/09/18 05:13:56;;;;;;;1.30;0.80;;;20.80;64.30;;;;;;5056314;28;20447;-73
2022/09/18 05:16:27;;;;;;;1.13;0.50;;;20.80;64.30;;;;;;5052605;28;20502;-73
2022/09/18 05:19:14;;;;;;;1.13;0.90;;;20.80;64.30;;;;;;5055422;28;20967;-72
2022/09/18 05:21:43;;;;;;;2.00;0.90;;;20.80;64.30;;;;;;5071032;28;20458;-73
2022/09/18 05:24:12;;;;;;;0.97;0.77;;;20.80;64.30;;;;;;5055879;28;20460;-73
2022/09/18 05:26:43;;;;;;;1.20;1.10;;;20.80;64.30;;;;;;5044014;28;20456;-72
2022/09/18 05:29:12;;;;;;;0.60;0.60;;;20.80;64.40;;;;;;5069052;28;20475;-73
2022/09/18 05:31:41;;;;;;;2.80;1.10;;;20.80;64.40;;;;;;5044542;28;20447;-73
2022/09/18 05:34:09;;;;;;;0.77;0.77;;;20.80;64.40;;;;;;5055276;28;20469;-73
2022/09/18 05:36:40;;;;;;;1.57;0.70;;;20.80;64.40;;;;;;5056111;28;20459;-73
2022/09/18 05:39:08;;;;;;;0.60;0.60;;;20.80;64.40;;;;;;5055615;28;20562;-73
2022/09/18 05:41:43;;;;;;;1.23;0.70;;;20.80;64.40;;;;;;5055728;28;20538;-72
2022/09/18 05:44:12;;;;;;;0.83;0.70;;;20.80;64.40;;;;;;5055209;28;20463;-73
2022/09/18 05:46:40;;;;;;;0.60;0.60;;;20.80;64.40;;;;;;5071871;28;20443;-73
2022/09/18 05:49:09;;;;;;;7.20;0.90;;;20.80;64.40;;;;;;5071761;28;20470;-73
2022/09/18 05:51:37;;;;;;;1.53;1.10;;;20.80;64.40;;;;;;5071743;28;21014;-73
2022/09/18 05:54:06;;;;;;;3.40;1.00;;;20.80;64.30;;;;;;5062682;28;20459;-72
2022/09/18 05:56:45;;;;;;;1.60;0.67;;;20.80;64.40;;;;;;5052017;28;20466;-73
2022/09/18 05:59:13;;;;;;;3.63;1.43;;;20.80;64.30;;;;;;5065361;28;20906;-72
2022/09/18 06:01:44;;;;;;;1.00;0.70;;;20.80;64.30;;;;;;5071356;28;20449;-72
2022/09/18 06:04:33;;;;;;;1.10;1.00;;;20.80;64.40;;;;;;5056762;28;20450;-73
2022/09/18 06:07:08;;;;;;;1.43;0.60;;;20.80;64.30;;;;;;5067784;28;20545;-72
2022/09/18 06:09:36;;;;;;;1.60;0.87;;;20.80;64.30;;;;;;5045759;28;20561;-72
2022/09/18 06:12:06;;;;;;;0.90;0.90;;;20.80;64.30;;;;;;5055131;28;20493;-72
2022/09/18 06:14:36;;;;;;;0.80;0.67;;;20.80;64.30;;;;;;5071021;28;20525;-73
2022/09/18 06:17:04;;;;;;;2.70;0.87;;;20.80;64.30;;;;;;5065871;28;20814;-72
2022/09/18 06:19:35;;;;;;;0.60;0.60;;;20.80;64.30;;;;;;5043425;28;20469;-72
2022/09/18 06:22:03;;;;;;;0.80;0.80;;;20.80;64.30;;;;;;5062358;28;20465;-73
2022/09/18 06:24:33;;;;;;;0.80;0.70;;;20.80;64.30;;;;;;5045174;28;20930;-73
2022/09/18 06:27:15;;;;;;;1.90;0.90;;;20.80;64.30;;;;;;5046531;28;20452;-73
2022/09/18 06:29:45;;;;;;;1.17;1.07;;;20.80;64.30;;;;;;5048662;28;20969;-73
2022/09/18 06:32:16;;;;;;;0.70;0.60;;;20.80;64.30;;;;;;5071384;28;20447;-73
2022/09/18 06:34:44;;;;;;;0.93;0.80;;;20.80;64.30;;;;;;5057936;28;20951;-71
2022/09/18 06:37:15;;;;;;;0.70;0.70;;;20.80;64.40;;;;;;5054260;28;20508;-72
2022/09/18 06:39:43;;;;;;;0.97;0.70;;;20.80;64.30;;;;;;5072562;28;20795;-72
2022/09/18 06:42:25;;;;;;;0.80;0.60;;;20.80;64.30;;;;;;5054739;28;20446;-72
2022/09/18 06:45:12;;;;;;;0.80;0.63;;;20.80;64.30;;;;;;5050770;28;20950;-72
2022/09/18 06:47:40;;;;;;;1.60;0.90;;;20.80;64.30;;;;;;5042483;28;20487;-72
2022/09/18 06:50:09;;;;;;;1.23;0.80;;;20.80;64.30;;;;;;5044399;28;20474;-72
2022/09/18 06:52:37;;;;;;;0.70;0.70;;;20.80;64.30;;;;;;5053345;28;20464;-72
2022/09/18 06:55:06;;;;;;;1.37;0.70;;;20.80;64.40;;;;;;5051590;28;20829;-73
2022/09/18 06:57:36;;;;;;;1.07;0.90;;;20.80;64.30;;;;;;5049768;28;20465;-72
2022/09/18 07:00:05;;;;;;;0.70;0.70;;;20.80;64.30;;;;;;5052460;28;20459;-72
2022/09/18 07:02:37;;;;;;;0.90;0.83;;;20.80;64.30;;;;;;5041063;28;20465;-72
2022/09/18 07:05:44;;;;;;;0.80;0.73;;;20.80;64.40;;;;;;5025603;28;20460;-72
2022/09/18 07:08:24;;;;;;;1.03;0.83;;;20.80;64.40;;;;;;5047023;28;20474;-72
2022/09/18 07:11:01;;;;;;;1.17;0.80;;;20.80;64.40;;;;;;5048776;28;20533;-72
2022/09/18 07:13:32;;;;;;;1.20;1.00;;;20.90;64.30;;;;;;5056967;28;20473;-72
2022/09/18 07:16:00;;;;;;;1.30;0.90;;;20.90;64.30;;;;;;5071178;28;20495;-72
2022/09/18 07:18:29;;;;;;;1.40;0.93;;;20.90;64.20;;;;;;5050722;28;20573;-72
2022/09/18 07:20:59;;;;;;;1.83;1.20;;;20.90;64.30;;;;;;5054474;28;20486;-72
2022/09/18 07:23:37;;;;;;;0.67;0.67;;;20.80;64.30;;;;;;5057362;28;20490;-72
2022/09/18 07:26:05;;;;;;;0.70;0.57;;;20.80;64.20;;;;;;5045680;28;20454;-72
2022/09/18 07:28:37;;;;;;;1.33;1.23;;;20.80;64.30;;;;;;5056971;28;20455;-72
2022/09/18 07:31:17;;;;;;;0.93;0.90;;;20.80;64.40;;;;;;5065841;28;20462;-73
2022/09/18 07:33:51;;;;;;;4.67;0.70;;;20.70;64.40;;;;;;5065692;28;20508;-72
2022/09/18 07:36:20;;;;;;;2.10;0.60;;;20.70;64.30;;;;;;5057028;28;20845;-73
2022/09/18 07:38:51;;;;;;;0.80;0.80;;;20.70;64.20;;;;;;5075296;28;20459;-73
2022/09/18 07:41:20;;;;;;;3.00;1.13;;;20.70;64.40;;;;;;5048113;28;20553;-73
2022/09/18 07:43:50;;;;;;;1.57;1.00;;;20.70;64.30;;;;;;5058490;28;20443;-73
2022/09/18 07:46:19;;;;;;;0.80;0.67;;;20.70;64.40;;;;;;5056505;28;20455;-73
2022/09/18 07:48:49;;;;;;;1.03;0.80;;;20.70;64.20;;;;;;5055998;28;20933;-73
2022/09/18 07:51:25;;;;;;;1.00;0.70;;;20.70;64.40;;;;;;5056093;28;20489;-73
2022/09/18 07:53:55;;;;;;;1.53;0.90;;;20.70;64.30;;;;;;5056661;28;20781;-73
2022/09/18 07:56:45;;;;;;;1.60;0.80;;;20.70;64.30;;;;;;5043465;28;20450;-73
2022/09/18 07:59:18;;;;;;;1.67;1.57;;;20.70;64.30;;;;;;5055191;28;21474;-73
2022/09/18 08:01:56;;;;;;;4.60;1.10;;;20.70;64.60;;;;;;5054804;28;20461;-73
2022/09/18 08:04:28;;;;;;;0.80;0.80;;;20.70;64.40;;;;;;5069880;28;20446;-73
2022/09/18 08:07:15;;;;;;;1.63;1.00;;;20.70;64.40;;;;;;5074393;28;20445;-73
2022/09/18 08:09:57;;;;;;;1.37;1.07;;;20.70;64.40;;;;;;5055352;28;20497;-73
2022/09/18 08:12:44;;;;;;;0.70;0.70;;;20.60;64.40;;;;;;5058585;28;20482;-73
2022/09/18 08:15:33;;;;;;;0.70;0.70;;;20.60;64.40;;;;;;5074505;28;20539;-74
2022/09/18 08:18:40;;;;;;;1.80;1.07;;;20.60;64.40;;;;;;5012590;28;20464;-72
2022/09/18 08:21:15;;;;;;;6.23;1.70;;;20.70;64.90;;;;;;5005026;28;21074;-71
2022/09/18 08:23:46;;;;;;;2.73;2.33;;;20.70;65.20;;;;;;5038903;28;20779;-72
2022/09/18 08:26:15;;;;;;;2.30;1.60;;;20.70;65.50;;;;;;5054452;28;21335;-71
2022/09/18 08:28:50;;;;;;;2.60;1.13;;;20.70;65.40;;;;;;5051979;28;20462;-71
2022/09/18 08:31:19;;;;;;;1.40;1.00;;;20.70;65.00;;;;;;5068482;28;20471;-71
2022/09/18 08:33:51;;;;;;;1.73;1.10;;;20.70;64.80;;;;;;5062306;28;20933;-71
2022/09/18 08:36:20;;;;;;;3.30;1.23;;;20.70;65.00;;;;;;5057212;28;21004;-71
2022/09/18 08:39:01;;;;;;;1.53;1.43;;;20.70;64.90;;;;;;5049635;28;20451;-71
2022/09/18 08:42:12;;;;;;;0.90;0.90;;;20.70;65.00;;;;;;5043433;28;20926;-71
2022/09/18 08:44:48;;;;;;;1.40;1.30;;;20.70;64.90;;;;;;5036911;28;20524;-71
2022/09/18 08:47:25;;;;;;;2.20;0.97;;;20.70;64.90;;;;;;5056962;28;20454;-71
2022/09/18 08:50:01;;;;;;;1.23;1.10;;;20.80;64.80;;;;;;5058062;28;20462;-71
2022/09/18 08:52:32;;;;;;;3.80;1.27;;;20.80;64.80;;;;;;5072666;28;20490;-71
2022/09/18 08:55:17;;;;;;;1.63;1.07;;;20.80;65.10;;;;;;5073175;28;20541;-71
2022/09/18 08:58:10;;;;;;;1.03;1.00;;;20.80;65.50;;;;;;5071416;28;20462;-71
2022/09/18 09:00:47;;;;;;;2.27;1.10;;;20.80;65.40;;;;;;5058860;28;20454;-71
2022/09/18 09:03:31;;;;;;;2.43;1.37;;;20.90;65.30;;;;;;5053124;28;20462;-71
2022/09/18 09:06:03;;;;;;;2.10;1.10;;;20.90;65.50;;;;;;5074723;28;20940;-71
2022/09/18 09:09:00;;;;;;;1.83;1.20;;;20.90;65.40;;;;;;5056162;28;20442;-71
2022/09/18 09:11:40;;;;;;;1.63;1.07;;;20.90;65.50;;;;;;5069887;28;20561;-71
2022/09/18 09:14:33;;;;;;;0.90;0.90;;;20.90;65.40;;;;;;5054352;28;20825;-71
2022/09/18 09:17:37;;;;;;;1.93;1.17;;;20.90;65.50;;;;;;5062400;28;20457;-72
2022/09/18 09:20:18;;;;;;;1.53;1.43;;;20.90;65.50;;;;;;5033942;28;20463;-71
2022/09/18 09:22:55;;;;;;;0.93;0.90;;;20.90;65.50;;;;;;5040292;28;20464;-71
2022/09/18 09:25:29;;;;;;;7.37;2.00;;;20.90;65.80;;;;;;5054700;28;20446;-71
2022/09/18 09:28:25;;;;;;;0.90;0.80;;;20.90;65.90;;;;;;5055315;28;20462;-71
2022/09/18 09:31:22;;;;;;;1.03;0.87;;;21.00;65.80;;;;;;5021919;28;20498;-71
2022/09/18 09:34:21;;;;;;;1.00;0.90;;;21.00;65.60;;;;;;5052355;28;21216;-70
2022/09/18 09:37:15;;;;;;;3.03;0.93;;;21.00;65.80;;;;;;5050268;28;20459;-71
2022/09/18 09:39:49;;;;;;;1.20;1.10;;;21.00;65.70;;;;;;5055017;28;20454;-71
2022/09/18 09:42:24;;;;;;;0.83;0.83;;;21.00;65.60;;;;;;5053655;28;20556;-71
2022/09/18 09:44:59;;;;;;;1.20;0.80;;;21.00;65.60;;;;;;5074227;28;20463;-71
2022/09/18 09:47:34;;;;;;;2.30;0.90;;;21.00;65.50;;;;;;5072372;28;20531;-71
2022/09/18 09:50:23;;;;;;;1.90;1.30;;;21.00;65.30;;;;;;5055006;28;20478;-71
2022/09/18 09:52:58;;;;;;;1.50;1.40;;;21.00;65.20;;;;;;5070034;28;20470;-71
2022/09/18 09:55:30;;;;;;;3.13;1.40;;;21.00;65.10;;;;;;5055126;28;20461;-70
2022/09/18 09:58:09;;;;;;;0.80;0.80;;;21.10;65.20;;;;;;5054101;28;20449;-71
2022/09/18 10:00:46;;;;;;;3.07;1.00;;;21.10;65.30;;;;;;5055326;28;20790;-71
2022/09/18 10:03:29;;;;;;;1.20;1.10;;;21.10;65.20;;;;;;5051040;28;20520;-71
2022/09/18 10:06:04;;;;;;;4.87;1.17;;;21.10;65.20;;;;;;5070448;28;20829;-72
2022/09/18 10:08:41;;;;;;;3.23;1.80;;;21.10;65.20;;;;;;5053869;28;20470;-72
2022/09/18 10:11:12;;;;;;;2.60;1.20;;;21.10;65.40;;;;;;5051823;28;20487;-72
2022/09/18 10:13:48;;;;;;;2.63;1.00;;;21.20;65.20;;;;;;5056571;28;20498;-71
2022/09/18 10:16:21;;;;;;;7.10;1.40;;;21.20;65.20;;;;;;5062643;28;20478;-72
2022/09/18 10:18:50;;;;;;;2.07;1.10;;;21.30;65.10;;;;;;5072393;28;20471;-71
2022/09/18 10:21:23;;;;;;;5.30;1.50;;;21.30;65.20;;;;;;5054435;28;20479;-71
2022/09/18 10:23:57;;;;;;;5.20;1.17;;;21.40;65.30;;;;;;5054474;28;20459;-72
2022/09/18 10:26:31;;;;;;;4.60;1.10;;;21.40;65.40;;;;;;5047795;28;20467;-72
2022/09/18 10:29:00;;;;;;;1.43;1.33;;;21.40;65.10;;;;;;5047097;28;20792;-71
2022/09/18 10:31:47;;;;;;;2.53;1.70;;;21.40;65.00;;;;;;5058473;28;20455;-71
2022/09/18 10:34:34;;;;;;;6.53;2.50;;;21.50;64.90;;;;;;5049469;28;20462;-71
2022/09/18 10:37:04;;;;;;;1.80;1.00;;;21.50;64.80;;;;;;5039433;28;20456;-72
2022/09/18 10:39:36;;;;;;;6.40;1.90;;;21.50;64.80;;;;;;5050942;28;20797;-71
2022/09/18 10:42:16;;;;;;;5.70;1.23;;;21.50;64.70;;;;;;5049565;28;20987;-72
2022/09/18 10:44:50;;;;;;;1.30;1.17;;;21.50;64.70;;;;;;5067887;28;20464;-72
2022/09/18 10:47:26;;;;;;;1.87;0.87;;;21.50;64.60;;;;;;5050964;28;20551;-71
2022/09/18 10:50:00;;;;;;;4.50;1.60;;;21.50;64.60;;;;;;5069606;28;20461;-72
2022/09/18 10:52:35;;;;;;;1.10;1.00;;;21.50;64.40;;;;;;5059196;28;20970;-72
2022/09/18 10:55:13;;;;;;;1.50;1.20;;;21.60;64.40;;;;;;5046443;28;20943;-72
2022/09/18 10:58:15;;;;;;;0.80;0.80;;;21.60;64.40;;;;;;5045043;28;20522;-72
2022/09/18 11:00:56;;;;;;;1.80;1.20;;;21.70;64.20;;;;;;5063021;28;20493;-72
2022/09/18 11:03:46;;;;;;;2.20;1.17;;;21.70;64.00;;;;;;5055787;28;20972;-72
2022/09/18 11:06:26;;;;;;;0.70;0.70;;;21.70;63.90;;;;;;5048251;28;20467;-72
2022/09/18 11:09:00;;;;;;;5.33;1.17;;;21.80;64.10;;;;;;5050104;28;20457;-71
2022/09/18 11:11:32;;;;;;;1.47;1.00;;;21.80;63.70;;;;;;5050139;28;20995;-72
2022/09/18 11:14:17;;;;;;;2.03;1.10;;;21.80;64.00;;;;;;5045046;28;20456;-72
2022/09/18 11:17:01;;;;;;;1.43;1.30;;;22.00;63.50;;;;;;5058663;28;20512;-72
2022/09/18 11:19:37;;;;;;;1.70;0.90;;;22.10;63.60;;;;;;5055130;28;20462;-71
2022/09/18 11:22:33;;;;;;;1.10;0.83;;;22.10;63.50;;;;;;5051760;28;21485;-71
2022/09/18 11:25:23;;;;;;;1.60;1.00;;;22.20;63.30;;;;;;5067542;28;20844;-71
2022/09/18 11:27:57;;;;;;;1.23;1.00;;;22.30;63.30;;;;;;5050450;28;20444;-71
2022/09/18 11:30:34;;;;;;;1.73;1.40;;;22.40;63.30;;;;;;5052783;28;20456;-71
2022/09/18 11:33:14;;;;;;;2.00;1.23;;;22.40;62.90;;;;;;5048366;28;20552;-71
2022/09/18 11:35:45;;;;;;;1.80;1.20;;;22.40;62.60;;;;;;5070694;28;20441;-72
2022/09/18 11:38:18;;;;;;;0.93;0.93;;;22.50;62.60;;;;;;5054389;28;20952;-72
2022/09/18 11:40:51;;;;;;;5.10;1.20;;;22.50;62.80;;;;;;5052459;28;20457;-72
2022/09/18 11:43:27;;;;;;;1.60;1.13;;;22.50;62.80;;;;;;5052611;28;20473;-71
2022/09/18 11:46:05;;;;;;;1.00;1.00;;;22.50;62.60;;;;;;5061139;28;20480;-71
2022/09/18 11:48:37;;;;;;;1.40;0.97;;;22.50;62.60;;;;;;5069136;28;20597;-71
2022/09/18 11:51:13;;;;;;;2.10;1.37;;;22.50;62.60;;;;;;5051855;28;20492;-72
2022/09/18 11:53:44;;;;;;;2.67;1.93;;;22.40;62.80;;;;;;5050201;28;20552;-71
2022/09/18 11:56:17;;;;;;;1.13;1.03;;;22.40;63.20;;;;;;5070398;28;20444;-72
2022/09/18 11:58:51;;;;;;;0.97;0.70;;;22.30;63.50;;;;;;5052607;28;20477;-72
2022/09/18 12:01:27;;;;;;;1.50;0.90;;;22.20;63.00;;;;;;5060350;28;20954;-72
2022/09/18 12:04:02;;;;;;;0.90;0.90;;;22.20;63.10;;;;;;5049797;28;20449;-71
2022/09/18 12:06:38;;;;;;;2.17;1.50;;;22.10;62.90;;;;;;5050712;28;20462;-72
2022/09/18 12:09:15;;;;;;;2.50;1.20;;;22.10;63.10;;;;;;5054455;28;20458;-72
2022/09/18 12:11:50;;;;;;;1.87;1.07;;;22.10;62.80;;;;;;5055173;28;20537;-71
2022/09/18 12:14:25;;;;;;;0.80;0.80;;;22.00;62.80;;;;;;5068009;28;20500;-72
2022/09/18 12:17:16;;;;;;;1.00;0.90;;;22.10;63.60;;;;;;5055067;28;20492;-72
2022/09/18 12:19:49;;;;;;;2.83;1.07;;;22.20;63.60;;;;;;5053815;28;20471;-72
2022/09/18 12:22:26;;;;;;;1.20;0.70;;;22.30;63.50;;;;;;5047580;28;20477;-72
2022/09/18 12:24:54;;;;;;;0.77;0.77;;;22.50;62.90;;;;;;5070024;28;20790;-72
2022/09/18 12:27:48;;;;;;;1.30;0.90;;;22.50;62.90;;;;;;5070681;28;20440;-72
2022/09/18 12:30:19;;;;;;;1.20;0.80;;;22.60;62.60;;;;;;5051844;28;20464;-72
2022/09/18 12:33:03;;;;;;;1.10;1.00;;;22.70;62.10;;;;;;5070941;28;20478;-72
2022/09/18 12:35:45;;;;;;;2.40;1.20;;;22.70;62.30;;;;;;5065771;28;20454;-71
2022/09/18 12:38:24;;;;;;;2.60;1.10;;;22.80;62.00;;;;;;5071534;28;20789;-72
2022/09/18 12:41:09;;;;;;;2.50;1.30;;;22.80;62.10;;;;;;5070626;28;20448;-71
2022/09/18 12:43:53;;;;;;;1.00;0.90;;;22.80;62.40;;;;;;5073605;28;20453;-72
2022/09/18 12:46:40;;;;;;;1.63;0.87;;;22.80;61.90;;;;;;5070398;28;20533;-72
2022/09/18 12:49:31;;;;;;;1.00;1.00;;;22.70;62.30;;;;;;5071231;28;20789;-72
2022/09/18 12:52:10;;;;;;;2.70;0.90;;;22.60;62.30;;;;;;5065687;28;20449;-72
2022/09/18 12:55:11;;;;;;;2.00;0.97;;;22.50;62.60;;;;;;5070896;28;20468;-72
2022/09/18 12:57:50;;;;;;;1.20;0.73;;;22.40;62.40;;;;;;5061214;28;20465;-72
2022/09/18 13:00:21;;;;;;;1.00;0.80;;;22.30;62.40;;;;;;5070110;28;20437;-71
2022/09/18 13:02:55;;;;;;;1.33;0.73;;;22.30;62.70;;;;;;5069776;28;20908;-71
2022/09/18 13:05:29;;;;;;;0.90;0.83;;;22.20;63.10;;;;;;5070347;28;20468;-72
2022/09/18 13:08:07;;;;;;;1.63;0.90;;;22.20;63.00;;;;;;5072659;28;20457;-72
2022/09/18 13:10:39;;;;;;;0.60;0.60;;;22.20;62.70;;;;;;5071554;28;20458;-71
2022/09/18 13:13:14;;;;;;;1.00;1.00;;;22.10;62.90;;;;;;5072741;28;20511;-71
2022/09/18 13:15:46;;;;;;;1.00;1.00;;;22.10;62.90;;;;;;5072027;28;20471;-72
2022/09/18 13:18:31;;;;;;;0.80;0.80;;;22.10;62.90;;;;;;5068100;28;20768;-71
2022/09/18 13:21:06;;;;;;;1.27;1.07;;;22.10;62.80;;;;;;5065258;28;21361;-71
2022/09/18 13:23:37;;;;;;;0.60;0.60;;;22.10;62.90;;;;;;5068780;28;20451;-72
2022/09/18 13:26:10;;;;;;;0.80;0.80;;;22.00;63.10;;;;;;5061349;28;20458;-72
2022/09/18 13:28:41;;;;;;;0.87;0.80;;;22.00;62.90;;;;;;5073443;28;20467;-72
2022/09/18 13:31:30;;;;;;;1.10;1.00;;;22.00;62.80;;;;;;5062957;28;20439;-72